KLNP

Details ICAO KLNP
Name LONESOME PINE
Region United States
Timezone America/New_York (UTC-5.0)
Plans Departing 1
Arriving 1
Stats Elevation 2,684 ft / 818 m (AMSL)
Location 36.987518° -82.529997°
Runways 1
Magnetic Variation 6.916° W
Sunrise 2017-12-16 12:38:17 UTC / 2017-12-16 07:38:17 Local
Sunset 2017-12-16 22:16:12 UTC / 2017-12-16 17:16:12 Local
Advertisement - Login to hide

Runways

ID Width Length Bearing (true) Bearing (mag) Surface Threshold Offset Overrun Length
06 100 ft / 30 m 5,276 ft / 1,608 m 56.06° 62.98° Asphalt 0 ft / 0 m 0 ft / 0 m
24 100 ft / 30 m 5,276 ft / 1,608 m 236.07° 242.99° Asphalt 0 ft / 0 m 0 ft / 0 m

Approach Navaids

Runway Type Ident Frequency Range Bearing (true) Bearing (mag) Slope Elevation
24 Localiser IOWN 110.70 MHz 18 nm / 33 km 236.06° 242.98° - 2,684 ft / 818 m (AMSL)
24 DME IOWN 110.70 MHz 18 nm / 33 km - - - 2,681 ft / 817 m (AMSL)

Map

Weather


0- 5 10 15 20 25 30 35+ Temperature / ° C

Clouds and Precipitation
Forecast for 2017-12-16 18:00 UTC. Updated 15 minutes ago

Ground ~20,000 ft ~40,000 ft Winds

METAR

KLNP 161515Z AUTO 24009KT 10SM CLR 00/M04 A3019 RMK AO2

TAF

Not found

Frequencies

Recorded 118.60 MHz AWOS 3
Unicom 123.00 MHz CTAF/UNICOM
Warning: Do not use this data for real-world aviation or navigation. No guarantee of current accuracy is given.